createdAt,value
2022-10-04T00:02:21.004Z,22.40
2022-10-04T00:04:54.076Z,22.30
2022-10-04T00:07:27.186Z,22.30
2022-10-04T00:10:00.793Z,22.30
2022-10-04T00:12:33.509Z,22.30
2022-10-04T00:15:05.120Z,22.30
2022-10-04T00:17:36.174Z,22.30
2022-10-04T00:20:06.169Z,22.30
2022-10-04T00:22:34.796Z,22.30
2022-10-04T00:25:36.915Z,22.20
2022-10-04T00:28:31.114Z,22.20
2022-10-04T00:31:14.871Z,22.20
2022-10-04T00:33:44.693Z,22.20
2022-10-04T00:36:32.762Z,22.20
2022-10-04T00:39:27.235Z,22.20
2022-10-04T00:42:32.335Z,22.10
2022-10-04T00:45:05.564Z,22.10
2022-10-04T00:47:55.820Z,22.10
2022-10-04T00:50:30.626Z,22.00
2022-10-04T00:53:01.641Z,22.00
2022-10-04T00:55:38.745Z,22.00
2022-10-04T00:58:16.546Z,22.00
2022-10-04T01:00:46.193Z,22.00
2022-10-04T01:03:20.155Z,22.00
2022-10-04T01:05:51.821Z,21.90
2022-10-04T01:08:27.107Z,21.90
2022-10-04T01:10:59.927Z,22.00
2022-10-04T01:13:33.315Z,21.90
2022-10-04T01:16:05.011Z,21.90
2022-10-04T01:18:34.867Z,21.90
2022-10-04T01:21:08.118Z,21.90
2022-10-04T01:23:43.748Z,21.90
2022-10-04T01:26:48.339Z,21.90
2022-10-04T01:29:19.209Z,21.90
2022-10-04T01:31:49.787Z,21.80
2022-10-04T01:34:19.620Z,21.80
2022-10-04T01:36:48.997Z,21.80
2022-10-04T01:39:20.557Z,21.80
2022-10-04T01:41:54.138Z,21.80
2022-10-04T01:44:29.522Z,21.80
2022-10-04T01:47:01.785Z,21.80
2022-10-04T01:49:32.647Z,21.70
2022-10-04T01:52:05.704Z,21.70
2022-10-04T01:54:38.674Z,21.70
2022-10-04T01:57:13.601Z,21.70
2022-10-04T01:59:47.563Z,21.70
2022-10-04T02:02:23.212Z,21.60
2022-10-04T02:04:56.021Z,21.60
2022-10-04T02:07:26.476Z,21.60
2022-10-04T02:10:00.597Z,21.60
2022-10-04T02:12:32.005Z,21.60
2022-10-04T02:15:03.005Z,21.60
2022-10-04T02:17:33.240Z,21.50
2022-10-04T02:20:02.997Z,21.50
2022-10-04T02:22:31.821Z,21.50
2022-10-04T02:25:02.025Z,21.50
2022-10-04T02:27:31.483Z,21.50
2022-10-04T02:30:03.522Z,21.50
2022-10-04T02:32:53.526Z,21.50
2022-10-04T02:35:21.705Z,21.40
2022-10-04T02:37:54.589Z,21.40
2022-10-04T02:40:30.206Z,21.40
2022-10-04T02:43:04.426Z,21.40
2022-10-04T02:45:41.104Z,21.40
2022-10-04T02:48:22.840Z,21.30
2022-10-04T02:50:54.970Z,21.30
2022-10-04T02:53:28.324Z,21.30
2022-10-04T02:55:58.613Z,21.30
2022-10-04T02:58:28.204Z,21.30
2022-10-04T03:00:59.269Z,21.30
2022-10-04T03:03:29.624Z,21.30
2022-10-04T03:06:02.813Z,21.20
2022-10-04T03:08:35.413Z,21.20
2022-10-04T03:11:06.493Z,21.20
2022-10-04T03:13:37.255Z,21.20
2022-10-04T03:16:05.983Z,21.20
2022-10-04T03:18:35.828Z,21.20
2022-10-04T03:21:08.892Z,21.20
2022-10-04T03:23:37.580Z,21.10
2022-10-04T03:26:18.772Z,21.10
2022-10-04T03:28:47.140Z,21.10
2022-10-04T03:31:15.889Z,21.00
2022-10-04T03:33:45.398Z,21.00
2022-10-04T03:36:17.376Z,21.00
2022-10-04T03:38:47.413Z,21.00
2022-10-04T03:41:18.456Z,21.00
2022-10-04T03:43:50.432Z,21.00
2022-10-04T03:46:20.015Z,21.00
2022-10-04T03:48:51.234Z,20.90
2022-10-04T03:51:22.735Z,20.90
2022-10-04T03:53:53.671Z,20.90
2022-10-04T03:56:27.944Z,20.90
2022-10-04T03:58:57.209Z,20.90
2022-10-04T04:01:36.427Z,20.80
2022-10-04T04:04:15.252Z,20.80
2022-10-04T04:06:51.661Z,20.80
2022-10-04T04:09:24.720Z,20.80
2022-10-04T04:11:58.487Z,20.80
2022-10-04T04:14:28.461Z,20.80
2022-10-04T04:17:16.346Z,20.80
2022-10-04T04:19:45.312Z,20.70
2022-10-04T04:22:17.795Z,20.70
2022-10-04T04:24:46.696Z,20.70
2022-10-04T04:27:18.950Z,20.70
2022-10-04T04:29:51.778Z,20.70
2022-10-04T04:32:24.985Z,20.70
2022-10-04T04:34:54.975Z,20.70
2022-10-04T04:37:22.826Z,20.70
2022-10-04T04:39:55.292Z,20.70
2022-10-04T04:42:34.190Z,20.70
2022-10-04T04:45:05.732Z,20.70
2022-10-04T04:47:37.367Z,20.60
2022-10-04T04:50:08.607Z,20.70
2022-10-04T04:52:38.682Z,20.80
2022-10-04T04:55:16.971Z,20.80
2022-10-04T04:57:47.326Z,20.90
2022-10-04T05:00:20.050Z,20.90
2022-10-04T05:02:58.838Z,20.80
2022-10-04T05:05:28.843Z,20.70
2022-10-04T05:08:23.708Z,20.70
2022-10-04T05:10:59.153Z,20.70
2022-10-04T05:13:35.396Z,20.60
2022-10-04T05:16:03.827Z,20.50
2022-10-04T05:18:34.336Z,20.40
2022-10-04T05:21:08.711Z,20.30
2022-10-04T05:23:37.026Z,20.30
2022-10-04T05:26:10.694Z,20.20
2022-10-04T05:28:40.527Z,19.90
2022-10-04T05:31:28.639Z,19.60
2022-10-04T05:33:59.321Z,19.40
2022-10-04T05:36:48.249Z,19.20
2022-10-04T05:39:26.171Z,19.00
2022-10-04T05:42:01.385Z,18.80
2022-10-04T05:44:32.945Z,18.70
2022-10-04T05:47:03.269Z,18.60
2022-10-04T05:49:36.732Z,18.40
2022-10-04T05:52:14.978Z,18.30
2022-10-04T05:54:43.693Z,18.20
2022-10-04T05:57:38.454Z,18.20
2022-10-04T06:00:15.812Z,18.10
2022-10-04T06:03:20.308Z,18.10
2022-10-04T06:05:53.838Z,18.30
2022-10-04T06:08:37.685Z,18.50
2022-10-04T06:11:13.795Z,18.60
2022-10-04T06:14:02.769Z,18.70
2022-10-04T06:16:49.303Z,18.80
2022-10-04T06:20:01.622Z,18.90
2022-10-04T06:22:29.914Z,19.00
2022-10-04T06:25:02.158Z,19.00
2022-10-04T06:27:36.011Z,19.10
2022-10-04T06:30:06.793Z,19.20
2022-10-04T06:32:59.905Z,19.30
2022-10-04T06:35:47.917Z,19.30
2022-10-04T06:38:38.449Z,19.40
2022-10-04T06:41:39.069Z,19.40
2022-10-04T06:44:27.477Z,19.40
2022-10-04T06:47:06.176Z,19.50
2022-10-04T06:49:46.470Z,19.60
2022-10-04T06:52:49.514Z,19.70
2022-10-04T06:55:39.970Z,19.70
2022-10-04T06:58:37.440Z,19.80
2022-10-04T07:01:15.160Z,20.00
2022-10-04T07:03:54.342Z,20.10
2022-10-04T07:06:28.844Z,20.20
2022-10-04T07:09:02.741Z,20.20
2022-10-04T07:11:42.922Z,20.30
2022-10-04T07:14:16.632Z,20.40
2022-10-04T07:16:49.160Z,20.50
2022-10-04T07:19:36.214Z,20.60
2022-10-04T07:22:17.890Z,20.70
2022-10-04T07:24:58.610Z,20.70
2022-10-04T07:27:33.536Z,20.80
2022-10-04T07:30:14.836Z,20.90
2022-10-04T07:32:46.991Z,21.10
2022-10-04T07:35:21.591Z,21.30
2022-10-04T07:37:59.221Z,21.60
2022-10-04T07:40:31.669Z,21.80
2022-10-04T07:43:06.253Z,22.10
2022-10-04T07:45:36.401Z,22.30
2022-10-04T07:48:11.989Z,22.60
2022-10-04T07:50:45.950Z,23.10
2022-10-04T07:53:19.361Z,23.50
2022-10-04T07:55:56.417Z,24.00
2022-10-04T07:58:46.035Z,24.40
2022-10-04T08:01:27.957Z,24.60
2022-10-04T08:04:17.205Z,24.90
2022-10-04T08:06:57.259Z,25.10
2022-10-04T08:09:38.803Z,25.00
2022-10-04T08:12:17.624Z,25.10
2022-10-04T08:14:54.466Z,25.30
2022-10-04T08:17:34.089Z,25.50
2022-10-04T08:20:24.633Z,25.60
2022-10-04T08:23:13.758Z,25.90
2022-10-04T08:25:57.999Z,26.10
2022-10-04T08:28:53.679Z,26.30
2022-10-04T08:31:34.765Z,26.60
2022-10-04T08:34:21.424Z,26.70
2022-10-04T08:37:02.244Z,26.80
2022-10-04T08:39:48.043Z,27.20
2022-10-04T08:42:48.928Z,27.50
2022-10-04T08:45:34.825Z,27.90
2022-10-04T08:48:52.693Z,28.10
2022-10-04T08:52:00.557Z,28.40
2022-10-04T08:55:01.387Z,28.60
2022-10-04T08:58:02.652Z,28.90
2022-10-04T09:00:50.558Z,29.30
2022-10-04T09:03:58.966Z,29.80
2022-10-04T09:06:38.481Z,30.20
2022-10-04T09:09:24.837Z,30.60
2022-10-04T09:12:12.166Z,30.90
2022-10-04T09:15:15.593Z,31.20
2022-10-04T09:17:54.580Z,31.40
2022-10-04T09:20:38.713Z,31.80
2022-10-04T09:23:20.807Z,32.30
2022-10-04T09:25:50.616Z,32.70
2022-10-04T09:28:36.211Z,33.10
2022-10-04T09:31:16.046Z,33.20
2022-10-04T09:33:53.097Z,33.10
2022-10-04T09:36:52.444Z,33.20
2022-10-04T09:39:31.232Z,33.30
2022-10-04T09:42:10.979Z,33.30
2022-10-04T09:44:58.687Z,33.50
2022-10-04T09:47:37.610Z,33.60
2022-10-04T09:50:21.189Z,33.80
2022-10-04T09:52:54.373Z,34.00
2022-10-04T09:55:35.249Z,34.20
2022-10-04T09:58:15.027Z,34.40
2022-10-04T10:00:45.668Z,34.60
2022-10-04T10:03:28.907Z,35.00
2022-10-04T10:06:05.169Z,35.60
2022-10-04T10:08:37.496Z,36.40
2022-10-04T10:11:25.772Z,37.00
2022-10-04T10:14:03.733Z,36.90
2022-10-04T10:16:39.118Z,36.90
2022-10-04T10:19:28.041Z,37.20
2022-10-04T10:22:00.990Z,37.60
2022-10-04T10:24:45.841Z,38.00
2022-10-04T10:27:23.863Z,38.60
2022-10-04T10:30:04.479Z,39.20
2022-10-04T10:32:41.203Z,39.80
2022-10-04T10:35:24.785Z,40.30
2022-10-04T10:38:14.585Z,40.70
2022-10-04T10:40:49.330Z,41.10
2022-10-04T10:43:29.399Z,41.50
2022-10-04T10:46:19.148Z,41.80
2022-10-04T10:49:03.076Z,42.00
2022-10-04T10:51:57.226Z,42.20
2022-10-04T10:54:59.786Z,42.60
2022-10-04T10:57:58.891Z,43.00
2022-10-04T11:00:43.505Z,43.30
2022-10-04T11:03:40.006Z,43.60
2022-10-04T11:06:35.715Z,43.80
2022-10-04T11:09:30.917Z,44.10
2022-10-04T11:12:39.066Z,44.30
2022-10-04T11:15:25.939Z,44.50
2022-10-04T11:18:12.555Z,44.80
2022-10-04T11:21:06.285Z,44.70
2022-10-04T11:24:09.041Z,44.30
2022-10-04T11:26:59.863Z,44.00
2022-10-04T11:29:47.672Z,43.90
2022-10-04T11:33:03.073Z,43.70
2022-10-04T11:36:03.731Z,43.60
2022-10-04T11:38:52.238Z,43.60
2022-10-04T11:41:23.668Z,43.50
2022-10-04T11:44:21.148Z,42.80
2022-10-04T11:46:57.318Z,42.00
2022-10-04T11:49:43.823Z,41.60
2022-10-04T11:52:32.020Z,41.30
2022-10-04T11:55:36.436Z,41.30
2022-10-04T11:58:15.752Z,41.20
2022-10-04T12:01:08.859Z,41.10
2022-10-04T12:04:03.364Z,41.00
2022-10-04T12:06:44.490Z,40.80
2022-10-04T12:09:22.481Z,40.70
2022-10-04T12:12:38.841Z,40.70
2022-10-04T12:15:39.527Z,40.70
2022-10-04T12:18:52.777Z,40.60
2022-10-04T12:21:42.400Z,40.30
2022-10-04T12:24:21.879Z,40.20
2022-10-04T12:27:09.457Z,40.60
2022-10-04T12:30:09.790Z,40.90
2022-10-04T12:32:42.957Z,40.90
2022-10-04T12:35:27.594Z,41.00
2022-10-04T12:38:22.560Z,41.00
2022-10-04T12:40:58.365Z,41.00
2022-10-04T12:43:37.085Z,40.80
2022-10-04T12:46:12.084Z,40.70
2022-10-04T12:48:56.713Z,40.70
2022-10-04T12:51:38.265Z,40.70
2022-10-04T12:54:34.501Z,40.60
2022-10-04T12:57:44.148Z,40.80
2022-10-04T13:00:20.009Z,41.30
2022-10-04T13:03:12.512Z,41.60
2022-10-04T13:05:54.265Z,41.90
2022-10-04T13:08:32.664Z,42.20
2022-10-04T13:11:29.876Z,42.40
2022-10-04T13:14:16.022Z,42.60
2022-10-04T13:19:50.269Z,43.10
2022-10-04T13:22:56.561Z,43.20
2022-10-04T13:26:03.348Z,43.30
2022-10-04T13:28:40.006Z,43.60
2022-10-04T13:31:15.530Z,43.90
2022-10-04T13:33:50.259Z,44.30
2022-10-04T13:36:26.683Z,44.80
2022-10-04T13:39:31.672Z,45.30
2022-10-04T13:42:12.924Z,46.00
2022-10-04T13:45:04.337Z,45.80
2022-10-04T13:47:53.066Z,45.50
2022-10-04T13:50:36.220Z,45.20
2022-10-04T13:53:34.547Z,45.00
2022-10-04T13:56:25.735Z,44.80
2022-10-04T13:59:05.457Z,44.80
2022-10-04T14:02:10.439Z,44.80
2022-10-04T14:05:17.569Z,44.70
2022-10-04T14:08:12.600Z,44.60
2022-10-04T14:11:18.202Z,44.60
2022-10-04T14:14:10.335Z,44.50
2022-10-04T14:17:05.283Z,44.10
2022-10-04T14:19:58.388Z,43.30
2022-10-04T14:23:04.683Z,43.00
2022-10-04T14:26:08.413Z,42.90
2022-10-04T14:29:13.255Z,42.50
2022-10-04T14:32:05.267Z,42.50
2022-10-04T14:34:58.228Z,42.10
2022-10-04T14:37:55.765Z,42.10
2022-10-04T14:40:46.503Z,42.00
2022-10-04T14:43:43.079Z,42.00
2022-10-04T14:46:22.603Z,41.60
2022-10-04T14:49:05.142Z,41.10
2022-10-04T14:51:48.201Z,40.60
2022-10-04T14:54:30.289Z,40.30
2022-10-04T14:57:05.169Z,40.30
2022-10-04T14:59:56.424Z,40.30
2022-10-04T15:03:01.673Z,40.40
2022-10-04T15:05:59.927Z,39.90
2022-10-04T15:09:00.145Z,38.70
2022-10-04T15:12:21.551Z,37.60
2022-10-04T15:14:46.580Z,36.80
2022-10-04T15:17:28.008Z,36.10
2022-10-04T15:20:20.082Z,35.70
2022-10-04T15:22:55.192Z,35.30
2022-10-04T15:25:44.031Z,35.90
2022-10-04T15:28:42.668Z,36.10
2022-10-04T15:31:18.695Z,36.20
2022-10-04T15:34:01.723Z,36.40
2022-10-04T15:37:03.848Z,36.50
2022-10-04T15:39:58.899Z,36.10
2022-10-04T15:42:30.383Z,35.60
2022-10-04T15:45:18.714Z,35.20
2022-10-04T15:48:21.787Z,34.80
2022-10-04T15:51:01.680Z,34.80
2022-10-04T15:53:46.436Z,34.90
2022-10-04T15:56:27.976Z,35.00
2022-10-04T15:59:30.561Z,35.00
2022-10-04T16:02:38.126Z,34.40
2022-10-04T16:05:19.544Z,34.00
2022-10-04T16:08:29.570Z,33.40
2022-10-04T16:11:25.115Z,33.10
2022-10-04T16:14:21.686Z,32.90
2022-10-04T16:17:18.797Z,32.90
2022-10-04T16:20:06.050Z,32.60
2022-10-04T16:22:35.308Z,32.40
2022-10-04T16:25:37.034Z,32.20
2022-10-04T16:28:13.353Z,32.00
2022-10-04T16:30:48.500Z,32.00
2022-10-04T16:33:31.221Z,32.00
2022-10-04T16:36:11.977Z,31.90
2022-10-04T16:39:07.650Z,31.80
2022-10-04T16:41:42.326Z,31.70
2022-10-04T16:44:28.951Z,31.50
2022-10-04T16:47:01.429Z,31.40
2022-10-04T16:49:40.222Z,31.30
2022-10-04T16:52:46.070Z,31.20
2022-10-04T16:55:38.011Z,31.20
2022-10-04T16:58:50.943Z,31.10
2022-10-04T17:02:01.577Z,30.90
2022-10-04T17:05:05.007Z,30.80
2022-10-04T17:07:40.857Z,30.70
2022-10-04T17:10:21.269Z,30.60
2022-10-04T17:12:56.620Z,30.50
2022-10-04T17:15:47.883Z,30.50
2022-10-04T17:18:27.163Z,30.50
2022-10-04T17:21:04.157Z,30.50
2022-10-04T17:24:03.432Z,30.40
2022-10-04T17:26:48.948Z,30.40
2022-10-04T17:29:38.502Z,30.30
2022-10-04T17:32:17.591Z,30.30
2022-10-04T17:35:00.323Z,30.10
2022-10-04T17:37:39.885Z,30.20
2022-10-04T17:40:33.299Z,30.10
2022-10-04T17:43:08.287Z,29.90
2022-10-04T17:46:06.528Z,29.90
2022-10-04T17:49:01.127Z,29.90
2022-10-04T17:51:59.807Z,29.80
2022-10-04T17:54:49.584Z,29.70
2022-10-04T17:57:26.320Z,29.70
2022-10-04T18:00:06.777Z,29.60
2022-10-04T18:02:50.512Z,29.50
2022-10-04T18:05:22.609Z,29.40
2022-10-04T18:07:57.114Z,29.40
2022-10-04T18:10:32.152Z,29.30
2022-10-04T18:13:04.790Z,29.30
2022-10-04T18:15:37.524Z,29.20
2022-10-04T18:18:18.987Z,29.20
2022-10-04T18:21:05.358Z,29.10
2022-10-04T18:23:37.024Z,29.10
2022-10-04T18:26:17.621Z,29.10
2022-10-04T18:28:46.220Z,29.00
2022-10-04T18:31:33.469Z,28.90
2022-10-04T18:34:17.439Z,28.90
2022-10-04T18:36:58.651Z,28.90
2022-10-04T18:39:26.726Z,28.80
2022-10-04T18:42:16.698Z,28.80
2022-10-04T18:44:48.732Z,28.70
2022-10-04T18:47:21.422Z,28.70
2022-10-04T18:49:53.116Z,28.70
2022-10-04T18:52:39.001Z,28.60
2022-10-04T18:55:20.380Z,28.60
2022-10-04T18:58:19.717Z,28.50
2022-10-04T19:01:15.841Z,28.40
2022-10-04T19:03:51.491Z,28.40
2022-10-04T19:06:25.652Z,28.30
2022-10-04T19:09:04.675Z,28.30
2022-10-04T19:11:40.974Z,28.30
2022-10-04T19:14:23.554Z,28.20
2022-10-04T19:17:01.803Z,28.20
2022-10-04T19:19:44.035Z,28.20
2022-10-04T19:22:37.682Z,28.20
2022-10-04T19:25:39.359Z,28.20
2022-10-04T19:28:14.343Z,28.10
2022-10-04T19:31:12.268Z,28.00
2022-10-04T19:33:47.093Z,28.00
2022-10-04T19:36:35.901Z,28.00
2022-10-04T19:39:17.113Z,27.90
2022-10-04T19:41:59.885Z,27.90
2022-10-04T19:44:37.995Z,27.70
2022-10-04T19:47:21.452Z,27.60
2022-10-04T19:49:56.814Z,27.60
2022-10-04T19:52:36.473Z,27.60
2022-10-04T19:55:07.259Z,27.60
2022-10-04T19:57:39.370Z,27.60
2022-10-04T20:00:12.895Z,27.60
2022-10-04T20:02:48.503Z,27.60
2022-10-04T20:05:20.187Z,27.60
2022-10-04T20:07:52.857Z,27.60
2022-10-04T20:10:33.481Z,27.60
2022-10-04T20:13:25.274Z,27.60
2022-10-04T23:00:44.783Z,26.40
